sensor_id;sensor_type;location;lat;lon;timestamp;pressure;altitude;pressure_sealevel;temperature;humidity
36222;BME280;22266;52.340;4.962;2023-04-10T00:00:24;102046.53;;;11.42;55.26
36222;BME280;22266;52.340;4.962;2023-04-10T00:02:51;102043.00;;;11.42;55.20
36222;BME280;22266;52.340;4.962;2023-04-10T00:05:18;102042.66;;;11.45;55.44
36222;BME280;22266;52.340;4.962;2023-04-10T00:07:44;102035.09;;;11.40;55.07
36222;BME280;22266;52.340;4.962;2023-04-10T00:10:10;102027.84;;;11.32;55.39
36222;BME280;22266;52.340;4.962;2023-04-10T00:12:37;102014.38;;;11.32;55.31
36222;BME280;22266;52.340;4.962;2023-04-10T00:15:04;102003.09;;;11.29;55.49
36222;BME280;22266;52.340;4.962;2023-04-10T00:17:30;102019.59;;;11.26;55.34
36222;BME280;22266;52.340;4.962;2023-04-10T00:19:57;102013.38;;;11.17;55.41
36222;BME280;22266;52.340;4.962;2023-04-10T00:22:24;102001.59;;;11.18;55.80
36222;BME280;22266;52.340;4.962;2023-04-10T00:24:51;102005.13;;;11.19;55.68
36222;BME280;22266;52.340;4.962;2023-04-10T00:27:18;102002.59;;;11.17;55.96
36222;BME280;22266;52.340;4.962;2023-04-10T00:29:44;101996.22;;;11.18;55.93
36222;BME280;22266;52.340;4.962;2023-04-10T00:32:11;101996.53;;;11.15;55.52
36222;BME280;22266;52.340;4.962;2023-04-10T00:34:37;101988.78;;;11.12;55.62
36222;BME280;22266;52.340;4.962;2023-04-10T00:37:04;101988.09;;;11.10;56.15
36222;BME280;22266;52.340;4.962;2023-04-10T00:39:30;101983.75;;;11.09;55.88
36222;BME280;22266;52.340;4.962;2023-04-10T00:41:57;101979.56;;;11.06;56.37
36222;BME280;22266;52.340;4.962;2023-04-10T00:44:23;101975.97;;;11.06;56.32
36222;BME280;22266;52.340;4.962;2023-04-10T00:46:50;101980.19;;;11.08;55.58
36222;BME280;22266;52.340;4.962;2023-04-10T00:49:16;101978.03;;;10.96;56.01
36222;BME280;22266;52.340;4.962;2023-04-10T00:51:44;101974.66;;;10.94;56.70
36222;BME280;22266;52.340;4.962;2023-04-10T00:54:10;101971.47;;;10.90;56.76
36222;BME280;22266;52.340;4.962;2023-04-10T00:56:37;101971.94;;;10.94;56.55
36222;BME280;22266;52.340;4.962;2023-04-10T00:59:04;101973.66;;;10.95;56.79
36222;BME280;22266;52.340;4.962;2023-04-10T01:01:32;101970.59;;;10.98;56.63
36222;BME280;22266;52.340;4.962;2023-04-10T01:03:59;101960.69;;;10.98;56.21
36222;BME280;22266;52.340;4.962;2023-04-10T01:07:08;101964.03;;;11.00;57.05
36222;BME280;22266;52.340;4.962;2023-04-10T01:12:19;101941.34;;;10.86;57.46
36222;BME280;22266;52.340;4.962;2023-04-10T01:15:00;101942.16;;;10.87;57.40
36222;BME280;22266;52.340;4.962;2023-04-10T01:20:21;101933.41;;;10.85;57.47
36222;BME280;22266;52.340;4.962;2023-04-10T01:26:01;101933.06;;;10.72;58.00
36222;BME280;22266;52.340;4.962;2023-04-10T01:28:48;101926.84;;;10.63;57.88
36222;BME280;22266;52.340;4.962;2023-04-10T01:31:26;101926.69;;;10.64;58.29
36222;BME280;22266;52.340;4.962;2023-04-10T01:34:03;101920.63;;;10.62;58.30
36222;BME280;22266;52.340;4.962;2023-04-10T01:36:35;101921.66;;;10.61;58.88
36222;BME280;22266;52.340;4.962;2023-04-10T01:39:05;101924.50;;;10.60;58.55
36222;BME280;22266;52.340;4.962;2023-04-10T01:41:34;101914.06;;;10.57;58.86
36222;BME280;22266;52.340;4.962;2023-04-10T01:44:03;101911.53;;;10.55;59.00
36222;BME280;22266;52.340;4.962;2023-04-10T01:46:30;101918.09;;;10.61;58.71
36222;BME280;22266;52.340;4.962;2023-04-10T01:49:00;101914.91;;;10.57;58.83
36222;BME280;22266;52.340;4.962;2023-04-10T01:51:29;101913.22;;;10.56;58.33
36222;BME280;22266;52.340;4.962;2023-04-10T01:53:59;101911.88;;;10.52;58.90
36222;BME280;22266;52.340;4.962;2023-04-10T01:56:27;101903.28;;;10.49;58.96
36222;BME280;22266;52.340;4.962;2023-04-10T01:58:55;101907.81;;;10.56;58.94
36222;BME280;22266;52.340;4.962;2023-04-10T02:01:21;101902.28;;;10.58;59.35
36222;BME280;22266;52.340;4.962;2023-04-10T02:03:57;101896.53;;;10.61;59.27
36222;BME280;22266;52.340;4.962;2023-04-10T02:07:19;101916.09;;;10.63;59.24
36222;BME280;22266;52.340;4.962;2023-04-10T02:12:15;101897.75;;;10.58;58.99
36222;BME280;22266;52.340;4.962;2023-04-10T02:14:44;101895.38;;;10.63;58.90
36222;BME280;22266;52.340;4.962;2023-04-10T02:17:13;101890.00;;;10.63;59.01
36222;BME280;22266;52.340;4.962;2023-04-10T02:19:42;101894.03;;;10.59;58.98
36222;BME280;22266;52.340;4.962;2023-04-10T02:22:12;101888.84;;;10.58;59.06
36222;BME280;22266;52.340;4.962;2023-04-10T02:24:41;101892.38;;;10.58;59.15
36222;BME280;22266;52.340;4.962;2023-04-10T02:27:09;101891.34;;;10.59;59.51
36222;BME280;22266;52.340;4.962;2023-04-10T02:29:36;101887.31;;;10.63;59.08
36222;BME280;22266;52.340;4.962;2023-04-10T02:32:05;101883.44;;;10.66;59.40
36222;BME280;22266;52.340;4.962;2023-04-10T02:34:32;101893.00;;;10.69;58.93
36222;BME280;22266;52.340;4.962;2023-04-10T02:36:58;101889.47;;;10.68;58.99
36222;BME280;22266;52.340;4.962;2023-04-10T02:39:28;101889.66;;;10.67;59.10
36222;BME280;22266;52.340;4.962;2023-04-10T02:41:54;101892.19;;;10.68;59.03
36222;BME280;22266;52.340;4.962;2023-04-10T02:44:21;101889.81;;;10.65;59.30
36222;BME280;22266;52.340;4.962;2023-04-10T02:46:48;101892.03;;;10.61;59.28
36222;BME280;22266;52.340;4.962;2023-04-10T02:49:15;101905.13;;;10.56;59.01
36222;BME280;22266;52.340;4.962;2023-04-10T02:51:43;101909.69;;;10.56;59.57
36222;BME280;22266;52.340;4.962;2023-04-10T02:54:09;101905.81;;;10.58;59.50
36222;BME280;22266;52.340;4.962;2023-04-10T02:56:38;101902.44;;;10.56;59.37
36222;BME280;22266;52.340;4.962;2023-04-10T02:59:04;101901.28;;;10.59;59.15
36222;BME280;22266;52.340;4.962;2023-04-10T03:01:32;101902.94;;;10.60;59.41
36222;BME280;22266;52.340;4.962;2023-04-10T03:03:59;101898.59;;;10.59;59.36
36222;BME280;22266;52.340;4.962;2023-04-10T03:06:29;101890.00;;;10.55;59.38
36222;BME280;22266;52.340;4.962;2023-04-10T03:08:57;101895.72;;;10.52;59.20
36222;BME280;22266;52.340;4.962;2023-04-10T03:11:25;101889.81;;;10.49;59.68
36222;BME280;22266;52.340;4.962;2023-04-10T03:13:52;101893.84;;;10.45;59.54
36222;BME280;22266;52.340;4.962;2023-04-10T03:16:20;101890.84;;;10.48;59.79
36222;BME280;22266;52.340;4.962;2023-04-10T03:18:46;101889.66;;;10.50;59.43
36222;BME280;22266;52.340;4.962;2023-04-10T03:21:13;101885.63;;;10.54;59.44
36222;BME280;22266;52.340;4.962;2023-04-10T03:23:40;101875.00;;;10.45;58.82
36222;BME280;22266;52.340;4.962;2023-04-10T03:26:07;101874.88;;;10.46;58.89
36222;BME280;22266;52.340;4.962;2023-04-10T03:28:37;101873.84;;;10.47;58.84
36222;BME280;22266;52.340;4.962;2023-04-10T03:31:05;101881.41;;;10.44;59.48
36222;BME280;22266;52.340;4.962;2023-04-10T03:33:34;101868.97;;;10.43;59.36
36222;BME280;22266;52.340;4.962;2023-04-10T03:36:01;101865.94;;;10.46;59.32
36222;BME280;22266;52.340;4.962;2023-04-10T03:38:28;101871.16;;;10.47;59.02
36222;BME280;22266;52.340;4.962;2023-04-10T03:40:54;101860.56;;;10.46;59.13
36222;BME280;22266;52.340;4.962;2023-04-10T03:43:23;101864.44;;;10.43;59.19
36222;BME280;22266;52.340;4.962;2023-04-10T03:45:50;101860.91;;;10.43;58.90
36222;BME280;22266;52.340;4.962;2023-04-10T03:48:17;101852.81;;;10.43;58.99
36222;BME280;22266;52.340;4.962;2023-04-10T03:50:45;101860.72;;;10.44;59.04
36222;BME280;22266;52.340;4.962;2023-04-10T03:53:11;101845.06;;;10.39;58.69
36222;BME280;22266;52.340;4.962;2023-04-10T03:55:38;101850.63;;;10.38;58.97
36222;BME280;22266;52.340;4.962;2023-04-10T03:58:06;101840.53;;;10.40;59.24
36222;BME280;22266;52.340;4.962;2023-04-10T04:00:33;101845.41;;;10.36;59.10
36222;BME280;22266;52.340;4.962;2023-04-10T04:03:23;101847.78;;;10.31;59.31
36222;BME280;22266;52.340;4.962;2023-04-10T04:06:01;101846.59;;;10.34;59.54
36222;BME280;22266;52.340;4.962;2023-04-10T04:08:41;101830.44;;;10.34;58.69
36222;BME280;22266;52.340;4.962;2023-04-10T04:11:22;101834.31;;;10.31;58.91
36222;BME280;22266;52.340;4.962;2023-04-10T04:14:18;101832.63;;;10.30;59.24
36222;BME280;22266;52.340;4.962;2023-04-10T04:17:14;101822.72;;;10.31;59.22
36222;BME280;22266;52.340;4.962;2023-04-10T04:19:59;101824.38;;;10.32;58.63
36222;BME280;22266;52.340;4.962;2023-04-10T04:23:04;101814.47;;;10.32;58.74
36222;BME280;22266;52.340;4.962;2023-04-10T04:25:42;101816.81;;;10.35;58.83
36222;BME280;22266;52.340;4.962;2023-04-10T04:28:27;101813.47;;;10.33;58.63
36222;BME280;22266;52.340;4.962;2023-04-10T04:31:08;101810.78;;;10.33;58.20
36222;BME280;22266;52.340;4.962;2023-04-10T04:33:54;101811.44;;;10.27;58.24
36222;BME280;22266;52.340;4.962;2023-04-10T04:36:40;101804.19;;;10.28;58.38
36222;BME280;22266;52.340;4.962;2023-04-10T04:39:17;101806.75;;;10.29;58.79
36222;BME280;22266;52.340;4.962;2023-04-10T04:41:58;101801.69;;;10.26;58.28
36222;BME280;22266;52.340;4.962;2023-04-10T04:44:43;101793.72;;;10.16;58.31
36222;BME280;22266;52.340;4.962;2023-04-10T04:47:28;101805.84;;;10.21;58.57
36222;BME280;22266;52.340;4.962;2023-04-10T04:50:13;101808.09;;;10.25;58.65
36222;BME280;22266;52.340;4.962;2023-04-10T04:53:00;101803.19;;;10.29;58.74
36222;BME280;22266;52.340;4.962;2023-04-10T04:55:47;101793.09;;;10.31;58.07
36222;BME280;22266;52.340;4.962;2023-04-10T04:58:23;101788.56;;;10.31;58.13
36222;BME280;22266;52.340;4.962;2023-04-10T05:01:08;101791.25;;;10.31;58.19
36222;BME280;22266;52.340;4.962;2023-04-10T05:04:04;101786.72;;;10.32;57.74
36222;BME280;22266;52.340;4.962;2023-04-10T05:06:54;101786.19;;;10.28;57.97
36222;BME280;22266;52.340;4.962;2023-04-10T05:09:40;101795.28;;;10.27;58.19
36222;BME280;22266;52.340;4.962;2023-04-10T05:12:22;101780.81;;;10.28;57.96
36222;BME280;22266;52.340;4.962;2023-04-10T05:14:57;101786.19;;;10.28;57.69
36222;BME280;22266;52.340;4.962;2023-04-10T05:17:34;101783.88;;;10.33;57.59
36222;BME280;22266;52.340;4.962;2023-04-10T05:20:13;101778.94;;;10.37;57.79
36222;BME280;22266;52.340;4.962;2023-04-10T05:22:54;101784.19;;;10.30;57.75
36222;BME280;22266;52.340;4.962;2023-04-10T05:25:52;101780.47;;;10.31;57.92
36222;BME280;22266;52.340;4.962;2023-04-10T05:28:31;101782.16;;;10.32;58.06
36222;BME280;22266;52.340;4.962;2023-04-10T05:31:11;101785.53;;;10.34;58.08
36222;BME280;22266;52.340;4.962;2023-04-10T05:33:48;101782.84;;;10.34;58.09
36222;BME280;22266;52.340;4.962;2023-04-10T05:36:23;101793.94;;;10.39;58.21
36222;BME280;22266;52.340;4.962;2023-04-10T05:38:56;101794.78;;;10.40;57.63
36222;BME280;22266;52.340;4.962;2023-04-10T05:41:34;101793.09;;;10.39;57.95
36222;BME280;22266;52.340;4.962;2023-04-10T05:44:24;101793.09;;;10.39;58.39
36222;BME280;22266;52.340;4.962;2023-04-10T05:47:19;101790.22;;;10.40;58.35
36222;BME280;22266;52.340;4.962;2023-04-10T05:49:55;101781.66;;;10.37;58.80
36222;BME280;22266;52.340;4.962;2023-04-10T05:52:33;101790.91;;;10.34;58.38
36222;BME280;22266;52.340;4.962;2023-04-10T05:55:19;101796.31;;;10.26;58.78
36222;BME280;22266;52.340;4.962;2023-04-10T05:57:59;101785.19;;;10.21;58.82
36222;BME280;22266;52.340;4.962;2023-04-10T06:00:46;101786.16;;;10.12;58.98
36222;BME280;22266;52.340;4.962;2023-04-10T06:03:33;101780.97;;;10.02;59.40
36222;BME280;22266;52.340;4.962;2023-04-10T06:06:01;101773.75;;;10.03;59.64
36222;BME280;22266;52.340;4.962;2023-04-10T06:08:29;101769.19;;;10.03;59.55
36222;BME280;22266;52.340;4.962;2023-04-10T06:10:56;101772.91;;;10.02;59.97
36222;BME280;22266;52.340;4.962;2023-04-10T06:13:22;101773.09;;;10.01;60.14
36222;BME280;22266;52.340;4.962;2023-04-10T06:15:53;101763.66;;;9.97;60.25
36222;BME280;22266;52.340;4.962;2023-04-10T06:18:20;101758.28;;;9.97;60.55
36222;BME280;22266;52.340;4.962;2023-04-10T06:20:46;101754.25;;;10.01;60.35
36222;BME280;22266;52.340;4.962;2023-04-10T06:23:13;101751.19;;;10.04;59.89
36222;BME280;22266;52.340;4.962;2023-04-10T06:25:39;101758.94;;;10.07;59.26
36222;BME280;22266;52.340;4.962;2023-04-10T06:28:07;101747.53;;;10.05;60.26
36222;BME280;22266;52.340;4.962;2023-04-10T06:30:33;101743.50;;;10.01;60.07
36222;BME280;22266;52.340;4.962;2023-04-10T06:33:04;101729.69;;;10.04;59.46
36222;BME280;22266;52.340;4.962;2023-04-10T06:35:35;101725.66;;;10.08;59.99
36222;BME280;22266;52.340;4.962;2023-04-10T06:38:02;101720.13;;;10.09;59.64
36222;BME280;22266;52.340;4.962;2023-04-10T06:40:32;101716.91;;;10.22;60.63
36222;BME280;22266;52.340;4.962;2023-04-10T06:43:00;101700.91;;;10.21;60.15
36222;BME280;22266;52.340;4.962;2023-04-10T06:45:33;101708.13;;;10.20;60.21
36222;BME280;22266;52.340;4.962;2023-04-10T06:47:59;101705.31;;;10.22;60.18
36222;BME280;22266;52.340;4.962;2023-04-10T06:50:26;101701.41;;;10.24;59.78
36222;BME280;22266;52.340;4.962;2023-04-10T06:52:52;101700.56;;;10.24;59.52
36222;BME280;22266;52.340;4.962;2023-04-10T06:55:21;101691.38;;;10.26;59.06
36222;BME280;22266;52.340;4.962;2023-04-10T06:57:47;101687.66;;;10.27;58.82
36222;BME280;22266;52.340;4.962;2023-04-10T07:00:14;101685.78;;;10.28;58.95
36222;BME280;22266;52.340;4.962;2023-04-10T07:02:40;101683.28;;;10.26;58.61
36222;BME280;22266;52.340;4.962;2023-04-10T07:05:07;101678.41;;;10.30;58.44
36222;BME280;22266;52.340;4.962;2023-04-10T07:07:34;101677.19;;;10.32;58.95
36222;BME280;22266;52.340;4.962;2023-04-10T07:10:00;101676.88;;;10.35;58.84
36222;BME280;22266;52.340;4.962;2023-04-10T07:12:28;101669.50;;;10.29;58.45
36222;BME280;22266;52.340;4.962;2023-04-10T07:14:54;101669.97;;;10.33;58.16
36222;BME280;22266;52.340;4.962;2023-04-10T07:17:21;101671.00;;;10.32;58.15
36222;BME280;22266;52.340;4.962;2023-04-10T07:19:47;101662.72;;;10.42;58.31
36222;BME280;22266;52.340;4.962;2023-04-10T07:22:14;101669.75;;;10.51;58.20
36222;BME280;22266;52.340;4.962;2023-04-10T07:24:41;101653.41;;;10.60;57.97
36222;BME280;22266;52.340;4.962;2023-04-10T07:27:07;101655.06;;;10.70;57.64
36222;BME280;22266;52.340;4.962;2023-04-10T07:29:34;101647.78;;;10.78;57.49
36222;BME280;22266;52.340;4.962;2023-04-10T07:32:00;101651.41;;;10.85;57.23
36222;BME280;22266;52.340;4.962;2023-04-10T07:34:27;101639.13;;;10.91;57.20
36222;BME280;22266;52.340;4.962;2023-04-10T07:36:53;101642.47;;;10.93;56.57
36222;BME280;22266;52.340;4.962;2023-04-10T07:39:20;101641.50;;;10.86;56.35
36222;BME280;22266;52.340;4.962;2023-04-10T07:41:46;101639.47;;;10.88;56.41
36222;BME280;22266;52.340;4.962;2023-04-10T07:44:13;101631.38;;;10.88;56.93
36222;BME280;22266;52.340;4.962;2023-04-10T07:46:40;101627.72;;;10.81;56.78
36222;BME280;22266;52.340;4.962;2023-04-10T07:49:06;101627.19;;;10.85;58.25
36222;BME280;22266;52.340;4.962;2023-04-10T07:51:34;101620.66;;;10.80;56.83
36222;BME280;22266;52.340;4.962;2023-04-10T07:54:02;101612.88;;;10.85;56.88
36222;BME280;22266;52.340;4.962;2023-04-10T07:56:28;101621.63;;;10.87;56.54
36222;BME280;22266;52.340;4.962;2023-04-10T07:58:58;101619.19;;;11.00;56.48
36222;BME280;22266;52.340;4.962;2023-04-10T08:01:26;101621.69;;;11.02;56.39
36222;BME280;22266;52.340;4.962;2023-04-10T08:03:53;101614.63;;;11.01;56.31
36222;BME280;22266;52.340;4.962;2023-04-10T08:06:21;101606.69;;;11.07;56.51
36222;BME280;22266;52.340;4.962;2023-04-10T08:08:48;101599.19;;;11.18;56.33
36222;BME280;22266;52.340;4.962;2023-04-10T08:11:25;101606.31;;;11.33;56.37
36222;BME280;22266;52.340;4.962;2023-04-10T08:13:54;101591.31;;;11.39;56.00
36222;BME280;22266;52.340;4.962;2023-04-10T08:16:25;101590.91;;;11.42;55.52
36222;BME280;22266;52.340;4.962;2023-04-10T08:18:53;101576.44;;;11.43;55.28
36222;BME280;22266;52.340;4.962;2023-04-10T08:21:21;101573.84;;;11.50;55.89
36222;BME280;22266;52.340;4.962;2023-04-10T08:23:52;101576.44;;;11.43;54.99
36222;BME280;22266;52.340;4.962;2023-04-10T08:26:18;101579.28;;;11.42;55.36
36222;BME280;22266;52.340;4.962;2023-04-10T08:28:51;101569.63;;;11.32;55.12
36222;BME280;22266;52.340;4.962;2023-04-10T08:31:19;101567.88;;;11.39;54.99
36222;BME280;22266;52.340;4.962;2023-04-10T08:33:47;101560.69;;;11.32;55.27
36222;BME280;22266;52.340;4.962;2023-04-10T08:36:14;101554.75;;;11.36;55.46
36222;BME280;22266;52.340;4.962;2023-04-10T08:38:45;101563.50;;;11.38;55.33
36222;BME280;22266;52.340;4.962;2023-04-10T08:41:13;101564.34;;;11.39;55.25
36222;BME280;22266;52.340;4.962;2023-04-10T08:43:40;101570.44;;;11.33;55.24
36222;BME280;22266;52.340;4.962;2023-04-10T08:46:08;101560.69;;;11.32;55.13
36222;BME280;22266;52.340;4.962;2023-04-10T08:51:19;101552.72;;;11.38;55.21
36222;BME280;22266;52.340;4.962;2023-04-10T08:53:54;101562.66;;;11.38;55.01
36222;BME280;22266;52.340;4.962;2023-04-10T08:56:23;101548.53;;;11.36;55.07
36222;BME280;22266;52.340;4.962;2023-04-10T08:58:50;101532.06;;;11.31;55.22
36222;BME280;22266;52.340;4.962;2023-04-10T09:01:20;101537.75;;;11.36;55.09
36222;BME280;22266;52.340;4.962;2023-04-10T09:03:47;101525.38;;;11.42;55.23
36222;BME280;22266;52.340;4.962;2023-04-10T09:06:14;101537.78;;;11.51;55.26
36222;BME280;22266;52.340;4.962;2023-04-10T09:08:40;101531.00;;;11.55;55.25
36222;BME280;22266;52.340;4.962;2023-04-10T09:11:06;101517.44;;;11.63;56.45
36222;BME280;22266;52.340;4.962;2023-04-10T09:13:38;101513.78;;;11.71;55.92
36222;BME280;22266;52.340;4.962;2023-04-10T09:16:05;101519.03;;;11.72;56.08
36222;BME280;22266;52.340;4.962;2023-04-10T09:18:50;101511.97;;;11.71;56.11
36222;BME280;22266;52.340;4.962;2023-04-10T09:21:19;101510.63;;;11.82;56.09
36222;BME280;22266;52.340;4.962;2023-04-10T09:23:47;101501.03;;;11.87;55.78
36222;BME280;22266;52.340;4.962;2023-04-10T09:29:03;101500.69;;;11.82;55.57
36222;BME280;22266;52.340;4.962;2023-04-10T09:31:34;101494.13;;;11.85;55.58
36222;BME280;22266;52.340;4.962;2023-04-10T09:34:10;101500.81;;;11.89;55.15
36222;BME280;22266;52.340;4.962;2023-04-10T09:36:36;101490.50;;;11.93;55.13
36222;BME280;22266;52.340;4.962;2023-04-10T09:39:04;101478.31;;;11.97;54.93
36222;BME280;22266;52.340;4.962;2023-04-10T09:41:31;101473.00;;;12.03;55.30
36222;BME280;22266;52.340;4.962;2023-04-10T09:44:28;101460.88;;;12.14;54.99
36222;BME280;22266;52.340;4.962;2023-04-10T09:46:56;101461.00;;;12.27;54.93
36222;BME280;22266;52.340;4.962;2023-04-10T09:49:23;101463.59;;;12.35;54.49
36222;BME280;22266;52.340;4.962;2023-04-10T09:51:49;101450.09;;;12.35;53.93
36222;BME280;22266;52.340;4.962;2023-04-10T09:54:16;101454.50;;;12.36;54.29
36222;BME280;22266;52.340;4.962;2023-04-10T09:56:44;101460.53;;;12.38;54.53
36222;BME280;22266;52.340;4.962;2023-04-10T09:59:12;101446.41;;;12.36;53.93
36222;BME280;22266;52.340;4.962;2023-04-10T10:01:39;101435.31;;;12.31;54.03
36222;BME280;22266;52.340;4.962;2023-04-10T10:04:08;101436.81;;;12.34;54.33
36222;BME280;22266;52.340;4.962;2023-04-10T10:06:37;101427.28;;;12.38;54.35
36222;BME280;22266;52.340;4.962;2023-04-10T10:09:04;101419.19;;;12.38;54.44
36222;BME280;22266;52.340;4.962;2023-04-10T10:11:34;101416.25;;;12.33;54.05
36222;BME280;22266;52.340;4.962;2023-04-10T10:14:12;101421.63;;;12.33;54.03
36222;BME280;22266;52.340;4.962;2023-04-10T10:16:49;101419.66;;;12.42;54.35
36222;BME280;22266;52.340;4.962;2023-04-10T10:21:54;101412.91;;;12.52;53.97
36222;BME280;22266;52.340;4.962;2023-04-10T10:24:22;101395.59;;;12.47;54.16
36222;BME280;22266;52.340;4.962;2023-04-10T10:26:56;101396.00;;;12.44;54.39
36222;BME280;22266;52.340;4.962;2023-04-10T10:29:24;101392.13;;;12.53;54.52
36222;BME280;22266;52.340;4.962;2023-04-10T10:31:51;101391.56;;;12.57;54.34
36222;BME280;22266;52.340;4.962;2023-04-10T10:34:19;101400.34;;;12.66;54.24
36222;BME280;22266;52.340;4.962;2023-04-10T10:36:45;101396.22;;;12.70;54.33
36222;BME280;22266;52.340;4.962;2023-04-10T10:39:25;101382.94;;;12.69;54.19
36222;BME280;22266;52.340;4.962;2023-04-10T10:45:16;101357.00;;;12.74;54.45
36222;BME280;22266;52.340;4.962;2023-04-10T10:47:46;101357.69;;;12.83;54.61
36222;BME280;22266;52.340;4.962;2023-04-10T10:50:14;101370.66;;;12.94;54.85
36222;BME280;22266;52.340;4.962;2023-04-10T10:57:52;101331.75;;;13.65;56.87
36222;BME280;22266;52.340;4.962;2023-04-10T11:00:20;101320.75;;;13.66;53.58
36222;BME280;22266;52.340;4.962;2023-04-10T11:05:59;101297.38;;;13.52;52.77
36222;BME280;22266;52.340;4.962;2023-04-10T11:08:36;101305.75;;;13.64;52.63
36222;BME280;22266;52.340;4.962;2023-04-10T11:11:19;101296.59;;;13.65;52.69
36222;BME280;22266;52.340;4.962;2023-04-10T11:19:05;101305.16;;;13.75;52.44
36222;BME280;22266;52.340;4.962;2023-04-10T11:22:06;101299.34;;;13.78;52.49
36222;BME280;22266;52.340;4.962;2023-04-10T11:27:38;101272.28;;;13.84;52.37
36222;BME280;22266;52.340;4.962;2023-04-10T11:30:31;101268.78;;;14.04;52.28
36222;BME280;22266;52.340;4.962;2023-04-10T11:32:59;101271.06;;;14.14;52.44
36222;BME280;22266;52.340;4.962;2023-04-10T11:35:26;101274.63;;;14.14;52.06
36222;BME280;22266;52.340;4.962;2023-04-10T11:38:09;101260.47;;;14.19;51.81
36222;BME280;22266;52.340;4.962;2023-04-10T11:40:52;101253.19;;;14.19;51.92
36222;BME280;22266;52.340;4.962;2023-04-10T11:43:18;101247.56;;;14.07;51.87
36222;BME280;22266;52.340;4.962;2023-04-10T11:45:45;101232.78;;;14.10;51.67
36222;BME280;22266;52.340;4.962;2023-04-10T11:48:14;101234.84;;;14.15;51.78
36222;BME280;22266;52.340;4.962;2023-04-10T11:50:41;101226.72;;;14.21;51.78
36222;BME280;22266;52.340;4.962;2023-04-10T11:53:26;101218.41;;;14.23;51.89
36222;BME280;22266;52.340;4.962;2023-04-10T11:55:53;101209.00;;;14.25;52.01
36222;BME280;22266;52.340;4.962;2023-04-10T11:58:27;101206.09;;;14.40;51.43
36222;BME280;22266;52.340;4.962;2023-04-10T12:01:03;101202.13;;;14.36;51.75
36222;BME280;22266;52.340;4.962;2023-04-10T12:03:38;101196.53;;;14.31;52.19
36222;BME280;22266;52.340;4.962;2023-04-10T12:06:08;101187.56;;;14.24;52.45
36222;BME280;22266;52.340;4.962;2023-04-10T12:08:40;101183.41;;;14.15;52.70
36222;BME280;22266;52.340;4.962;2023-04-10T12:11:09;101176.75;;;14.04;52.75
36222;BME280;22266;52.340;4.962;2023-04-10T12:13:36;101173.44;;;14.02;53.01
36222;BME280;22266;52.340;4.962;2023-04-10T12:16:05;101170.72;;;14.02;53.17
36222;BME280;22266;52.340;4.962;2023-04-10T12:18:33;101151.34;;;14.12;53.25
36222;BME280;22266;52.340;4.962;2023-04-10T12:21:01;101160.72;;;14.16;53.28
36222;BME280;22266;52.340;4.962;2023-04-10T12:23:28;101144.88;;;14.19;53.20
36222;BME280;22266;52.340;4.962;2023-04-10T12:26:15;101150.50;;;14.24;53.11
36222;BME280;22266;52.340;4.962;2023-04-10T12:28:54;101136.16;;;14.10;52.71
36222;BME280;22266;52.340;4.962;2023-04-10T12:31:33;101129.88;;;14.17;52.91
36222;BME280;22266;52.340;4.962;2023-04-10T12:34:02;101133.00;;;14.20;53.01
36222;BME280;22266;52.340;4.962;2023-04-10T12:36:31;101115.69;;;14.21;53.08
36222;BME280;22266;52.340;4.962;2023-04-10T12:39:01;101118.63;;;14.13;52.92
36222;BME280;22266;52.340;4.962;2023-04-10T12:41:31;101121.78;;;14.10;53.26
36222;BME280;22266;52.340;4.962;2023-04-10T12:44:12;101110.50;;;14.13;53.14
36222;BME280;22266;52.340;4.962;2023-04-10T12:46:40;101118.84;;;14.18;52.92
36222;BME280;22266;52.340;4.962;2023-04-10T12:49:11;101116.38;;;14.10;53.19
36222;BME280;22266;52.340;4.962;2023-04-10T12:51:48;101115.09;;;14.13;53.41
36222;BME280;22266;52.340;4.962;2023-04-10T12:54:34;101113.81;;;14.22;53.38
36222;BME280;22266;52.340;4.962;2023-04-10T12:57:02;101105.69;;;14.22;53.21
36222;BME280;22266;52.340;4.962;2023-04-10T12:59:29;101121.34;;;14.20;53.46
36222;BME280;22266;52.340;4.962;2023-04-10T13:01:56;101117.78;;;14.26;53.70
36222;BME280;22266;52.340;4.962;2023-04-10T13:04:23;101110.72;;;14.18;54.63
36222;BME280;22266;52.340;4.962;2023-04-10T13:06:50;101109.06;;;14.10;56.08
36222;BME280;22266;52.340;4.962;2023-04-10T13:09:19;101110.09;;;14.09;57.66
36222;BME280;22266;52.340;4.962;2023-04-10T13:11:46;101107.63;;;14.15;58.33
36222;BME280;22266;52.340;4.962;2023-04-10T13:14:16;101078.47;;;13.97;59.25
36222;BME280;22266;52.340;4.962;2023-04-10T13:16:43;101076.00;;;13.95;59.98
36222;BME280;22266;52.340;4.962;2023-04-10T13:19:09;101085.78;;;14.03;60.01
36222;BME280;22266;52.340;4.962;2023-04-10T13:21:36;101081.59;;;14.07;60.39
36222;BME280;22266;52.340;4.962;2023-04-10T13:24:02;101074.75;;;13.98;61.11
36222;BME280;22266;52.340;4.962;2023-04-10T13:26:29;101066.00;;;13.96;61.58
36222;BME280;22266;52.340;4.962;2023-04-10T13:28:55;101060.59;;;13.89;62.09
36222;BME280;22266;52.340;4.962;2023-04-10T13:31:22;101048.09;;;13.88;62.51
36222;BME280;22266;52.340;4.962;2023-04-10T13:33:49;101050.41;;;13.84;63.10
36222;BME280;22266;52.340;4.962;2023-04-10T13:36:15;101035.22;;;13.83;63.40
36222;BME280;22266;52.340;4.962;2023-04-10T13:38:42;101034.38;;;13.76;64.10
36222;BME280;22266;52.340;4.962;2023-04-10T13:41:08;101026.72;;;13.73;64.55
36222;BME280;22266;52.340;4.962;2023-04-10T13:43:35;101011.91;;;13.76;64.68
36222;BME280;22266;52.340;4.962;2023-04-10T13:46:02;101001.72;;;13.65;64.87
36222;BME280;22266;52.340;4.962;2023-04-10T13:48:29;101011.94;;;13.56;65.36
36222;BME280;22266;52.340;4.962;2023-04-10T13:51:08;101014.84;;;13.48;66.00